Time;durP1;ratioP1;P1;durP2;ratioP2;P2;SDS_P1;SDS_P2;PMS_P1;PMS_P2;Temp;Humidity;BMP_temperature;BMP_pressure;BME280_temperature;BME280_humidity;BME280_pressure;Samples;Min_cycle;Max_cycle;Signal;HPM_P1;HPM_P2
2022/04/24 00:03:19;;;;;;;5.40;4.00;;;11.40;99.90;;;;;;6745728;88;20251;-79
2022/04/24 00:13:20;;;;;;;5.53;3.85;;;11.30;99.90;;;;;;6744550;88;20176;-80
2022/04/24 00:23:21;;;;;;;5.95;3.87;;;11.30;99.90;;;;;;6746832;88;20177;-79
2022/04/24 00:33:22;;;;;;;6.03;3.75;;;11.20;99.90;;;;;;6743920;88;20275;-80
2022/04/24 00:43:22;;;;;;;4.22;2.87;;;11.10;99.90;;;;;;6744715;88;20218;-80
2022/04/24 00:53:23;;;;;;;5.93;2.95;;;11.10;99.90;;;;;;6744008;88;20696;-78
2022/04/24 01:03:23;;;;;;;4.53;3.03;;;11.00;99.90;;;;;;6740558;88;20210;-80
2022/04/24 01:13:24;;;;;;;3.83;2.87;;;11.10;99.90;;;;;;6745660;88;20218;-79
2022/04/24 01:23:24;;;;;;;4.87;2.80;;;11.20;99.90;;;;;;6761109;88;20368;-80
2022/04/24 01:33:27;;;;;;;5.30;3.00;;;11.20;99.90;;;;;;6749897;88;20298;-78
2022/04/24 01:43:28;;;;;;;4.03;2.97;;;11.40;99.90;;;;;;6763108;88;20318;-80
2022/04/24 01:53:30;;;;;;;4.35;3.00;;;11.60;99.90;;;;;;6765112;88;20247;-78
2022/04/24 02:03:31;;;;;;;5.60;3.10;;;11.80;99.90;;;;;;6758692;88;20745;-79
2022/04/24 02:23:35;;;;;;;4.15;3.20;;;11.50;99.90;;;;;;6693914;89;20171;-82
2022/04/24 02:33:36;;;;;;;4.32;3.10;;;11.50;99.90;;;;;;6693588;89;20220;-82
2022/04/24 02:53:41;;;;;;;5.85;3.50;;;11.70;99.90;;;;;;6694332;89;20681;-79
2022/04/24 03:04:22;;;;;;;5.28;3.10;;;11.70;99.90;;;;;;6745426;77;20187;-78
2022/04/24 03:14:23;;;;;;;5.40;3.15;;;11.60;99.90;;;;;;6798785;87;20273;-79
2022/04/24 03:24:23;;;;;;;4.05;2.80;;;11.40;99.90;;;;;;6764099;88;20199;-81
2022/04/24 03:34:24;;;;;;;5.12;3.30;;;11.10;99.90;;;;;;6764011;88;20216;-80
2022/04/24 03:44:24;;;;;;;4.50;3.20;;;10.90;99.90;;;;;;6762796;88;20187;-80
2022/04/24 03:54:25;;;;;;;4.78;2.97;;;10.80;99.90;;;;;;6790970;87;20183;-81
2022/04/24 04:04:26;;;;;;;4.82;3.22;;;10.60;99.90;;;;;;6795856;87;21927;-79
2022/04/24 04:14:28;;;;;;;6.20;3.75;;;10.40;99.90;;;;;;6799241;87;20722;-80
2022/04/24 04:24:28;;;;;;;5.93;3.80;;;10.30;99.90;;;;;;6799157;87;20740;-81
2022/04/24 04:34:29;;;;;;;4.12;3.28;;;10.10;99.90;;;;;;6799060;87;20195;-79
2022/04/24 04:44:30;;;;;;;5.33;3.63;;;10.10;99.90;;;;;;6799553;87;20833;-79
2022/04/24 04:54:30;;;;;;;6.03;4.00;;;10.00;99.90;;;;;;6800457;87;20836;-79
2022/04/24 05:04:31;;;;;;;5.18;3.85;;;10.20;99.90;;;;;;6798463;87;20195;-81
2022/04/24 05:14:32;;;;;;;7.03;3.78;;;10.10;99.90;;;;;;6794339;87;20256;-81
2022/04/24 05:24:32;;;;;;;6.75;3.95;;;10.20;99.90;;;;;;6797910;87;20179;-81
2022/04/24 05:34:33;;;;;;;5.80;4.13;;;10.40;99.90;;;;;;6797506;87;20191;-79
2022/04/24 05:44:33;;;;;;;6.15;4.15;;;10.60;99.90;;;;;;6797167;87;20274;-79
2022/04/24 05:54:34;;;;;;;7.65;4.35;;;10.50;99.90;;;;;;6797668;87;20183;-79
2022/04/24 06:04:34;;;;;;;7.53;4.78;;;10.50;99.90;;;;;;6795707;87;20263;-80
2022/04/24 06:14:35;;;;;;;8.57;4.60;;;10.60;99.90;;;;;;6791390;87;20198;-80
2022/04/24 06:24:35;;;;;;;8.05;4.90;;;10.90;99.90;;;;;;6795242;87;20234;-82
2022/04/24 06:34:36;;;;;;;10.25;4.90;;;11.10;99.90;;;;;;6794359;87;20215;-82
2022/04/24 06:44:37;;;;;;;7.47;4.55;;;11.20;99.90;;;;;;6792751;87;20193;-83
2022/04/24 06:54:37;;;;;;;6.03;4.50;;;11.50;99.90;;;;;;6792412;87;20274;-78
2022/04/24 07:04:38;;;;;;;6.10;4.43;;;11.60;99.90;;;;;;6793863;87;20210;-79
2022/04/24 07:14:38;;;;;;;7.28;4.97;;;11.80;99.90;;;;;;6792068;87;20299;-81
2022/04/24 07:24:39;;;;;;;6.37;4.60;;;12.30;99.90;;;;;;6787199;87;20261;-82
2022/04/24 07:34:39;;;;;;;6.20;5.00;;;13.00;99.90;;;;;;6787359;87;20262;-81
2022/04/24 07:44:40;;;;;;;7.37;5.20;;;13.20;99.90;;;;;;6784778;87;20222;-80
2022/04/24 07:54:40;;;;;;;8.13;5.10;;;14.10;99.20;;;;;;6793425;87;20256;-81
2022/04/24 08:04:41;;;;;;;7.22;5.10;;;15.00;97.80;;;;;;6794687;87;20180;-81
2022/04/24 08:14:42;;;;;;;6.75;5.25;;;15.30;97.50;;;;;;6794893;87;20209;-80
2022/04/24 08:24:42;;;;;;;7.00;4.90;;;15.70;97.70;;;;;;6787250;87;20215;-79
2022/04/24 08:34:43;;;;;;;6.70;5.25;;;16.00;97.80;;;;;;6784468;87;21005;-80
2022/04/24 08:44:43;;;;;;;6.50;5.30;;;16.60;95.60;;;;;;6788600;87;20215;-80
2022/04/24 08:54:45;;;;;;;5.93;4.87;;;17.50;93.90;;;;;;6791278;87;20661;-81
2022/04/24 09:04:46;;;;;;;7.20;5.65;;;16.80;93.60;;;;;;6789143;87;20495;-79
2022/04/24 09:14:51;;;;;;;7.57;5.57;;;17.10;93.10;;;;;;6789901;87;20235;-80
2022/04/24 09:24:59;;;;;;;8.60;5.30;;;17.40;92.90;;;;;;6787608;87;20272;-80
2022/04/24 09:34:59;;;;;;;7.82;5.22;;;18.30;92.60;;;;;;6786046;87;20348;-80
2022/04/24 09:45:01;;;;;;;7.47;5.12;;;19.00;91.10;;;;;;6782920;87;20180;-79
2022/04/24 09:55:02;;;;;;;8.77;5.00;;;19.00;91.60;;;;;;6787073;87;20614;-80
2022/04/24 10:05:04;;;;;;;6.85;5.10;;;18.80;91.10;;;;;;6783982;87;20202;-80
2022/04/24 10:15:12;;;;;;;5.87;4.60;;;18.90;90.90;;;;;;6783795;87;20226;-79
2022/04/24 10:25:15;;;;;;;6.12;4.70;;;19.50;89.10;;;;;;6779248;87;20172;-76
2022/04/24 10:35:19;;;;;;;6.03;3.97;;;19.40;87.40;;;;;;6780163;87;20431;-79
2022/04/24 10:45:20;;;;;;;6.07;4.35;;;18.90;90.20;;;;;;6773276;87;20289;-79
2022/04/24 10:55:26;;;;;;;6.50;4.20;;;18.20;89.40;;;;;;6782606;87;20187;-82
2022/04/24 11:05:26;;;;;;;6.40;4.15;;;17.90;90.40;;;;;;6779632;87;20180;-79
2022/04/24 11:15:27;;;;;;;5.20;3.60;;;17.70;87.40;;;;;;6783439;87;20190;-80
2022/04/24 11:25:28;;;;;;;5.12;3.67;;;18.00;86.80;;;;;;6785942;87;20187;-78
2022/04/24 11:35:30;;;;;;;4.53;3.35;;;18.70;83.40;;;;;;6781781;87;20206;-80
2022/04/24 11:56:01;;;;;;;4.93;3.90;;;19.10;83.50;;;;;;6763152;88;20189;-79
2022/04/24 12:06:07;;;;;;;5.20;4.00;;;20.70;80.00;;;;;;6762170;88;20547;-79
2022/04/24 12:16:07;;;;;;;4.28;3.65;;;21.90;75.70;;;;;;6758618;88;20273;-78
2022/04/24 12:26:09;;;;;;;6.95;3.30;;;21.50;75.10;;;;;;6761021;87;20683;-77
2022/04/24 12:36:13;;;;;;;4.72;3.35;;;21.80;77.30;;;;;;6764965;87;20563;-77
2022/04/24 12:46:14;;;;;;;4.22;2.75;;;25.00;72.00;;;;;;6766245;87;20201;-76
2022/04/24 12:56:15;;;;;;;4.40;3.28;;;25.50;63.80;;;;;;6766216;87;20334;-79
2022/04/24 13:06:16;;;;;;;4.93;3.53;;;23.40;65.90;;;;;;6765773;87;20230;-77
2022/04/24 13:26:36;;;;;;;4.55;3.30;;;24.20;65.20;;;;;;6767760;87;20660;-78
2022/04/24 13:36:37;;;;;;;3.92;3.50;;;24.20;63.50;;;;;;6765370;87;20321;-77
2022/04/24 13:46:37;;;;;;;4.78;3.65;;;25.40;62.40;;;;;;6761656;87;20274;-77
2022/04/24 13:56:39;;;;;;;5.10;3.55;;;23.90;61.90;;;;;;6766902;87;20801;-77
2022/04/24 14:06:39;;;;;;;5.18;3.50;;;22.80;62.70;;;;;;6773005;87;20683;-78
2022/04/24 14:17:00;;;;;;;4.43;3.03;;;22.10;65.70;;;;;;6797945;76;20231;-82
2022/04/24 14:27:01;;;;;;;4.87;3.40;;;24.20;63.20;;;;;;6683143;87;20160;-81
2022/04/24 14:37:01;;;;;;;4.12;3.60;;;23.20;63.10;;;;;;6643356;88;20295;-81
2022/04/24 14:57:23;;;;;;;4.95;4.18;;;22.10;66.10;;;;;;6639082;88;20277;-75
2022/04/24 15:07:23;;;;;;;6.87;4.80;;;21.40;66.90;;;;;;6665097;88;20307;-79
2022/04/24 15:17:24;;;;;;;7.32;4.20;;;20.80;67.60;;;;;;6671403;88;20755;-79
2022/04/24 15:27:25;;;;;;;5.45;4.10;;;20.50;67.80;;;;;;6655365;89;20209;-78
2022/04/24 15:37:27;;;;;;;5.53;4.00;;;20.30;68.30;;;;;;6654164;88;20240;-78
2022/04/24 15:47:28;;;;;;;8.25;4.22;;;20.10;69.50;;;;;;6661866;89;20196;-78
2022/04/24 15:57:28;;;;;;;5.50;3.77;;;19.90;69.70;;;;;;6669177;88;20221;-78
2022/04/24 16:07:29;;;;;;;6.72;4.45;;;19.60;70.70;;;;;;6666073;88;20239;-78
2022/04/24 16:17:30;;;;;;;6.03;4.25;;;19.50;70.50;;;;;;6680011;88;20232;-81
2022/04/24 16:27:30;;;;;;;5.20;4.15;;;19.30;72.40;;;;;;6675409;88;20168;-80
2022/04/24 16:37:32;;;;;;;6.50;4.37;;;19.10;74.40;;;;;;6676019;89;20303;-78
2022/04/24 16:47:33;;;;;;;5.80;4.15;;;18.80;74.70;;;;;;6675821;87;20161;-80
2022/04/24 17:07:52;;;;;;;5.90;3.97;;;18.40;74.60;;;;;;6661662;88;20196;-79
2022/04/24 17:17:53;;;;;;;5.82;4.30;;;18.20;75.00;;;;;;6661080;89;20882;-79
2022/04/24 17:27:53;;;;;;;7.62;3.83;;;17.90;75.80;;;;;;6697264;88;20182;-80
2022/04/24 17:37:55;;;;;;;4.97;3.80;;;17.90;76.60;;;;;;6697269;88;20162;-79
2022/04/24 17:47:57;;;;;;;6.78;4.95;;;17.70;77.10;;;;;;6663405;89;20598;-81
2022/04/24 17:58:18;;;;;;;8.45;5.05;;;17.50;77.10;;;;;;6694750;78;20234;-83
2022/04/24 18:08:59;;;;;;;6.90;5.18;;;17.30;78.20;;;;;;6772197;77;20169;-83
2022/04/24 18:19:02;;;;;;;8.43;4.82;;;16.80;80.30;;;;;;6731853;88;20326;-78
2022/04/24 18:29:03;;;;;;;9.43;5.30;;;16.40;84.40;;;;;;6730451;88;20823;-80
2022/04/24 18:39:04;;;;;;;6.55;4.93;;;16.30;87.50;;;;;;6737846;88;20217;-80
2022/04/24 18:49:05;;;;;;;6.93;5.85;;;15.70;91.20;;;;;;6756005;88;20177;-79
2022/04/24 18:59:07;;;;;;;7.82;6.12;;;15.10;96.40;;;;;;6721109;88;20271;-78
2022/04/24 19:09:07;;;;;;;10.88;7.78;;;14.20;99.90;;;;;;6755825;88;20217;-79
2022/04/24 19:19:08;;;;;;;14.02;10.00;;;12.40;99.90;;;;;;6748727;88;20231;-78
2022/04/24 19:29:09;;;;;;;14.10;10.25;;;11.60;99.90;;;;;;6746097;88;20219;-79
2022/04/24 19:39:10;;;;;;;13.70;9.65;;;11.30;99.90;;;;;;6744588;88;20185;-79
2022/04/24 19:49:21;;;;;;;13.07;10.02;;;11.20;99.90;;;;;;6742337;88;20289;-78
2022/04/24 19:59:22;;;;;;;14.05;10.25;;;11.20;99.90;;;;;;6745901;88;20710;-78
2022/04/24 20:09:23;;;;;;;13.27;9.50;;;11.30;99.90;;;;;;6753802;88;20221;-82
2022/04/24 20:19:24;;;;;;;15.77;10.45;;;11.30;99.90;;;;;;6738656;77;20348;-78
2022/04/24 20:29:24;;;;;;;16.60;12.23;;;11.40;99.90;;;;;;6723889;88;20247;-79
2022/04/24 20:39:41;;;;;;;17.07;12.43;;;11.30;99.90;;;;;;6724293;88;20389;-79
2022/04/24 20:49:41;;;;;;;;;;;10.90;99.90;;;;;;6708692;88;20575;-79
2022/04/24 20:59:42;;;;;;;19.02;13.68;;;10.80;99.90;;;;;;6706003;88;20110;-79
2022/04/24 21:09:43;;;;;;;18.35;13.43;;;10.60;99.90;;;;;;6717800;88;20236;-80
2022/04/24 21:19:44;;;;;;;21.70;14.13;;;10.50;99.90;;;;;;6707871;88;20276;-79
2022/04/24 21:29:44;;;;;;;18.40;13.25;;;10.50;99.90;;;;;;6738065;88;20192;-79
2022/04/24 21:39:45;;;;;;;18.60;13.80;;;10.70;99.90;;;;;;6738966;88;20291;-79
2022/04/24 21:49:46;;;;;;;19.77;14.15;;;10.80;99.90;;;;;;6740349;88;20729;-80
2022/04/24 21:59:46;;;;;;;19.35;13.90;;;10.90;99.90;;;;;;6740090;88;20210;-79
2022/04/24 22:09:47;;;;;;;21.00;13.75;;;10.70;99.90;;;;;;6738606;88;20197;-79
2022/04/24 22:19:47;;;;;;;22.25;14.55;;;11.10;99.90;;;;;;6738672;88;20218;-80
2022/04/24 22:29:49;;;;;;;19.27;14.25;;;10.90;99.90;;;;;;6738330;88;20218;-78
2022/04/24 22:39:49;;;;;;;22.05;15.85;;;11.10;99.90;;;;;;6738813;88;20335;-80
2022/04/24 22:49:50;;;;;;;21.10;15.25;;;10.80;99.90;;;;;;6738692;88;21016;-79
2022/04/24 22:59:50;;;;;;;22.50;15.45;;;11.00;99.90;;;;;;6739584;88;20188;-79
2022/04/24 23:09:51;;;;;;;21.10;14.70;;;10.90;99.90;;;;;;6739430;88;20214;-79
2022/04/24 23:19:52;;;;;;;23.25;15.43;;;11.10;99.90;;;;;;6740512;88;20338;-80
2022/04/24 23:29:53;;;;;;;23.42;16.37;;;10.90;99.90;;;;;;6741936;88;20209;-79
2022/04/24 23:39:54;;;;;;;23.87;16.48;;;10.70;99.90;;;;;;6742005;88;20209;-79
2022/04/24 23:49:54;;;;;;;23.02;16.27;;;10.90;99.90;;;;;;6737839;88;20255;-80
2022/04/24 23:59:55;;;;;;;24.98;15.90;;;10.90;99.90;;;;;;6741393;88;20628;-79
